Impacts TAF Board
For situational awareness. Not to be used for flight planning purposes.
IDs:

KCVG - Cincinnati Intl, KY, US

Issued at 1132 UTC 16 Sep 2019
Updated at 1214 UTC 16 Sep 2019
Potential Impact None Slight Moderate High
Time<<17/01Z 17/02Z 17/03Z 17/04Z 17/05Z 17/06Z 17/07Z 17/08Z 17/09Z 17/10Z 17/11Z 17/12Z 17/13Z>>
Type PRVL PRVL PRVL PRVL PRVL PRVL PRVL PRVL PRVL PRVL PRVL PRVL PRVL
VIS >6 >6 >6 >6 >6 >6 >6 >6 >6 >6 >6 >6 >6
CIG -- -- -- -- -- -- -- -- -- -- -- 15 15
Cover FEW FEW FEW FEW FEW FEW FEW FEW FEW FEW FEW BKN BKN
FltCat VFR VFR VFR VFR VFR VFR VFR VFR VFR VFR VFR MVFR MVFR
WX -- -- -- -- -- -- -- -- -- -- -- -- --
WDir 340 340 340 40 40 40 40 40 40 40 40 40 40
WSpd 7 7 7 6 6 6 6 6 6 6 6 5 5
WGst -- -- -- -- -- -- -- -- -- -- -- -- --
Raw TAF
KCVG 161132Z 1612/1718 23005KT P6SM SCT060
  FM161500 30008KT P6SM SCT050
  FM162300 34007KT P6SM FEW050
  FM170400 04006KT P6SM FEW050
  FM171200 04005KT P6SM BKN015
  FM171500 05006KT P6SM BKN025
  FM171700 05006KT P6SM SCT035


METAR Board
Radar Display
Forecast Discussion
For situational awareness. Not to be used for flight planning purposes.